createdAt,value
2018-09-27T00:01:08.766Z,58.70
2018-09-27T00:03:37.315Z,58.90
2018-09-27T00:06:05.730Z,58.70
2018-09-27T00:08:34.245Z,59.10
2018-09-27T00:11:02.686Z,59.00
2018-09-27T00:13:31.232Z,58.90
2018-09-27T00:15:59.912Z,58.70
2018-09-27T00:18:28.521Z,58.70
2018-09-27T00:20:57.066Z,58.90
2018-09-27T00:23:25.510Z,58.90
2018-09-27T00:25:53.972Z,58.90
2018-09-27T00:28:22.441Z,58.90
2018-09-27T00:30:51.109Z,58.70
2018-09-27T00:33:19.630Z,58.70
2018-09-27T00:35:48.133Z,58.70
2018-09-27T00:38:16.733Z,58.70
2018-09-27T00:40:45.728Z,59.00
2018-09-27T00:43:14.184Z,58.50
2018-09-27T00:45:43.327Z,58.70
2018-09-27T00:48:13.398Z,59.00
2018-09-27T00:50:42.112Z,58.70
2018-09-27T00:53:10.720Z,59.00
2018-09-27T00:55:39.484Z,58.70
2018-09-27T00:58:08.194Z,59.00
2018-09-27T01:00:36.880Z,59.10
2018-09-27T01:03:05.357Z,58.90
2018-09-27T01:05:33.811Z,58.90
2018-09-27T01:08:02.262Z,58.70
2018-09-27T01:10:30.696Z,58.70
2018-09-27T01:12:59.440Z,58.90
2018-09-27T01:15:28.264Z,58.70
2018-09-27T01:17:56.832Z,58.70
2018-09-27T01:20:25.309Z,58.70
2018-09-27T01:22:53.724Z,59.00
2018-09-27T01:25:22.256Z,59.00
2018-09-27T01:27:50.731Z,58.70
2018-09-27T01:30:19.178Z,58.90
2018-09-27T01:32:47.630Z,58.90
2018-09-27T01:35:16.144Z,59.00
2018-09-27T01:37:44.607Z,58.90
2018-09-27T01:40:13.101Z,58.70
2018-09-27T01:42:41.583Z,58.70
2018-09-27T01:45:10.131Z,59.00
2018-09-27T01:47:38.717Z,58.70
2018-09-27T01:50:07.232Z,58.90
2018-09-27T01:52:35.672Z,58.70
2018-09-27T01:55:04.176Z,58.70
2018-09-27T01:57:32.630Z,58.90
2018-09-27T02:00:01.125Z,58.90
2018-09-27T02:02:29.596Z,58.90
2018-09-27T02:04:58.097Z,58.70
2018-09-27T02:07:26.596Z,59.00
2018-09-27T02:09:55.040Z,58.70
2018-09-27T02:12:23.513Z,59.00
2018-09-27T02:14:51.995Z,58.70
2018-09-27T02:17:20.676Z,59.00
2018-09-27T02:19:49.447Z,58.90
2018-09-27T02:22:17.873Z,58.90
2018-09-27T02:24:46.340Z,58.90
2018-09-27T02:27:14.883Z,58.70
2018-09-27T02:29:43.352Z,59.00
2018-09-27T02:32:11.800Z,59.00
2018-09-27T02:34:40.264Z,59.00
2018-09-27T02:37:08.764Z,58.80
2018-09-27T02:39:37.248Z,59.00
2018-09-27T02:42:05.688Z,59.00
2018-09-27T02:44:34.207Z,58.70
2018-09-27T02:47:02.646Z,59.00
2018-09-27T02:49:31.224Z,59.00
2018-09-27T02:51:59.622Z,58.90
2018-09-27T02:54:28.077Z,58.90
2018-09-27T02:56:56.584Z,58.90
2018-09-27T02:59:25.040Z,59.00
2018-09-27T03:01:53.572Z,59.00
2018-09-27T03:04:22.064Z,58.80
2018-09-27T03:06:50.510Z,59.00
2018-09-27T03:09:19.118Z,59.00
2018-09-27T03:11:47.672Z,58.90
2018-09-27T03:14:16.136Z,58.90
2018-09-27T03:16:44.660Z,59.00
2018-09-27T03:19:13.144Z,58.90
2018-09-27T03:21:41.578Z,58.80
2018-09-27T03:24:10.101Z,58.90
2018-09-27T03:26:38.593Z,58.90
2018-09-27T03:29:07.089Z,58.90
2018-09-27T03:31:35.563Z,58.90
2018-09-27T03:34:04.077Z,58.90
2018-09-27T03:36:32.493Z,58.70
2018-09-27T03:39:00.948Z,58.90
2018-09-27T03:41:29.412Z,58.90
2018-09-27T03:43:57.954Z,58.80
2018-09-27T03:46:26.470Z,59.00
2018-09-27T03:48:54.875Z,59.00
2018-09-27T03:51:23.387Z,58.90
2018-09-27T03:53:51.883Z,58.90
2018-09-27T03:56:20.294Z,58.90
2018-09-27T03:58:48.825Z,59.00
2018-09-27T04:01:17.283Z,58.90
2018-09-27T04:03:45.772Z,59.00
2018-09-27T04:06:14.516Z,59.00
2018-09-27T04:08:43.000Z,59.00
2018-09-27T04:11:11.432Z,59.00
2018-09-27T04:13:39.876Z,58.90
2018-09-27T04:16:08.363Z,58.90
2018-09-27T04:18:36.832Z,58.90
2018-09-27T04:21:05.400Z,58.90
2018-09-27T04:23:33.832Z,58.90
2018-09-27T04:26:02.252Z,58.90
2018-09-27T04:28:30.744Z,58.90
2018-09-27T04:30:59.216Z,58.80
2018-09-27T04:33:27.729Z,58.80
2018-09-27T04:35:56.189Z,58.90
2018-09-27T04:38:24.710Z,58.90
2018-09-27T04:40:53.191Z,59.00
2018-09-27T04:43:21.660Z,59.00
2018-09-27T04:45:50.275Z,59.10
2018-09-27T04:48:18.781Z,58.80
2018-09-27T04:50:47.281Z,59.00
2018-09-27T04:53:15.784Z,58.90
2018-09-27T04:55:44.236Z,59.00
2018-09-27T04:58:12.754Z,59.00
2018-09-27T05:00:41.267Z,59.00
2018-09-27T05:03:09.722Z,59.00
2018-09-27T05:05:38.282Z,59.00
2018-09-27T05:08:07.174Z,58.90
2018-09-27T05:10:35.789Z,59.00
2018-09-27T05:13:04.244Z,59.00
2018-09-27T05:15:32.759Z,59.00
2018-09-27T05:18:01.376Z,59.00
2018-09-27T05:20:29.992Z,59.00
2018-09-27T05:22:58.575Z,59.00
2018-09-27T05:25:27.113Z,59.00
2018-09-27T05:27:55.542Z,59.00
2018-09-27T05:30:24.088Z,59.00
2018-09-27T05:32:52.584Z,59.00
2018-09-27T05:35:21.249Z,59.00
2018-09-27T05:37:49.732Z,59.00
2018-09-27T05:40:18.633Z,59.00
2018-09-27T05:42:47.257Z,59.00
2018-09-27T05:45:15.758Z,59.00
2018-09-27T05:47:44.207Z,59.10
2018-09-27T05:50:12.682Z,59.00
2018-09-27T05:52:41.176Z,59.00
2018-09-27T05:55:09.677Z,59.00
2018-09-27T05:57:38.161Z,59.00
2018-09-27T06:00:06.696Z,59.00
2018-09-27T06:02:35.309Z,59.00
2018-09-27T06:05:03.815Z,59.00
2018-09-27T06:07:32.315Z,59.00
2018-09-27T06:10:01.130Z,59.00
2018-09-27T06:12:29.637Z,59.10
2018-09-27T06:14:58.164Z,59.10
2018-09-27T06:17:26.588Z,59.10
2018-09-27T06:19:55.119Z,59.10
2018-09-27T06:22:23.594Z,59.10
2018-09-27T06:24:52.049Z,59.00
2018-09-27T06:27:20.551Z,59.00
2018-09-27T06:29:48.985Z,59.10
2018-09-27T06:32:17.487Z,59.10
2018-09-27T06:34:46.010Z,59.20
2018-09-27T06:37:14.428Z,59.00
2018-09-27T06:39:42.959Z,59.30
2018-09-27T06:42:11.386Z,59.30
2018-09-27T06:44:40.144Z,59.10
2018-09-27T06:47:08.607Z,59.20
2018-09-27T06:49:37.058Z,59.20
2018-09-27T06:52:05.570Z,59.30
2018-09-27T06:54:34.004Z,59.30
2018-09-27T06:57:02.508Z,59.30
2018-09-27T06:59:30.963Z,59.30
2018-09-27T07:01:59.556Z,59.20
2018-09-27T07:04:28.132Z,59.30
2018-09-27T07:06:56.599Z,59.30
2018-09-27T07:09:25.081Z,59.40
2018-09-27T07:11:53.970Z,59.40
2018-09-27T07:14:22.462Z,59.40
2018-09-27T07:16:50.930Z,59.40
2018-09-27T07:19:19.435Z,59.40
2018-09-27T07:21:47.896Z,59.30
2018-09-27T07:24:16.380Z,59.50
2018-09-27T07:26:45.000Z,59.40
2018-09-27T07:29:14.168Z,59.40
2018-09-27T07:31:42.680Z,59.30
2018-09-27T07:34:11.125Z,59.40
2018-09-27T07:36:39.690Z,59.50
2018-09-27T07:39:09.893Z,59.40
2018-09-27T07:41:38.796Z,59.60
2018-09-27T07:44:07.265Z,59.50
2018-09-27T07:46:35.964Z,59.70
2018-09-27T07:49:04.632Z,59.60
2018-09-27T07:51:33.184Z,59.50
2018-09-27T07:54:01.628Z,59.60
2018-09-27T07:56:30.185Z,59.50
2018-09-27T07:58:58.781Z,59.50
2018-09-27T08:01:27.270Z,59.50
2018-09-27T08:03:55.764Z,59.60
2018-09-27T08:06:24.284Z,59.50
2018-09-27T08:08:52.888Z,59.60
2018-09-27T08:11:21.668Z,59.60
2018-09-27T08:13:50.172Z,59.60
2018-09-27T08:16:18.818Z,59.60
2018-09-27T08:18:47.426Z,59.60
2018-09-27T08:21:16.150Z,59.50
2018-09-27T08:23:44.656Z,59.70
2018-09-27T08:26:13.313Z,59.60
2018-09-27T08:28:41.762Z,59.60
2018-09-27T08:31:10.272Z,59.60
2018-09-27T08:33:38.744Z,59.60
2018-09-27T08:36:07.597Z,59.60
2018-09-27T08:38:36.107Z,59.60
2018-09-27T08:41:04.579Z,59.70
2018-09-27T08:43:33.093Z,59.50
2018-09-27T08:46:01.530Z,59.70
2018-09-27T08:48:30.012Z,59.50
2018-09-27T08:50:58.531Z,59.60
2018-09-27T08:53:27.019Z,59.50
2018-09-27T08:55:55.483Z,59.60
2018-09-27T08:58:23.988Z,59.60
2018-09-27T09:00:52.438Z,59.60
2018-09-27T09:03:20.928Z,59.50
2018-09-27T09:05:49.395Z,59.60
2018-09-27T09:08:17.870Z,59.50
2018-09-27T09:10:46.390Z,59.60
2018-09-27T09:13:14.880Z,59.50
2018-09-27T09:15:44.027Z,59.50
2018-09-27T09:18:12.622Z,59.50
2018-09-27T09:20:41.128Z,59.50
2018-09-27T09:23:09.745Z,59.50
2018-09-27T09:25:38.288Z,59.60
2018-09-27T09:28:06.716Z,59.60
2018-09-27T09:30:35.228Z,59.60
2018-09-27T09:33:03.692Z,59.60
2018-09-27T09:35:32.184Z,59.60
2018-09-27T09:38:00.643Z,59.60
2018-09-27T09:40:29.180Z,59.60
2018-09-27T09:42:57.832Z,59.60
2018-09-27T09:45:26.526Z,59.70
2018-09-27T09:47:54.963Z,59.70
2018-09-27T09:50:23.471Z,59.70
2018-09-27T09:52:51.960Z,59.70
2018-09-27T09:55:20.444Z,59.80
2018-09-27T09:57:48.954Z,59.80
2018-09-27T10:00:17.416Z,59.80
2018-09-27T10:02:45.842Z,59.80
2018-09-27T10:05:14.348Z,59.90
2018-09-27T10:07:42.807Z,59.80
2018-09-27T10:10:14.459Z,59.90
2018-09-27T10:12:43.240Z,59.90
2018-09-27T10:15:11.724Z,59.90
2018-09-27T10:17:50.233Z,59.90
2018-09-27T10:20:18.823Z,60.00
2018-09-27T10:22:47.453Z,60.00
2018-09-27T10:25:15.924Z,60.00
2018-09-27T10:27:44.419Z,60.00
2018-09-27T10:30:13.808Z,60.00
2018-09-27T10:32:42.364Z,60.00
2018-09-27T10:35:10.827Z,60.00
2018-09-27T10:37:39.339Z,60.00
2018-09-27T10:40:07.783Z,60.10
2018-09-27T10:42:36.275Z,60.10
2018-09-27T10:45:05.220Z,60.10
2018-09-27T10:47:33.688Z,60.10
2018-09-27T10:50:02.342Z,60.10
2018-09-27T10:52:30.836Z,60.10
2018-09-27T10:54:59.236Z,60.10
2018-09-27T10:57:27.803Z,60.10
2018-09-27T10:59:56.268Z,60.10
2018-09-27T11:02:24.762Z,60.20
2018-09-27T11:04:53.152Z,60.20
2018-09-27T11:07:21.661Z,60.20
2018-09-27T11:09:50.149Z,60.20
2018-09-27T11:12:18.630Z,60.20
2018-09-27T11:14:47.124Z,60.20
2018-09-27T11:17:15.586Z,60.20
2018-09-27T11:19:45.880Z,60.20
2018-09-27T11:22:14.439Z,60.20
2018-09-27T11:24:42.898Z,60.20
2018-09-27T11:27:11.425Z,60.20
2018-09-27T11:29:45.100Z,60.20
2018-09-27T11:32:18.959Z,60.20
2018-09-27T11:34:47.411Z,60.20
2018-09-27T11:37:15.908Z,60.20
2018-09-27T11:39:44.400Z,60.30
2018-09-27T11:42:12.942Z,60.20
2018-09-27T11:44:41.361Z,60.20
2018-09-27T11:47:09.816Z,60.30
2018-09-27T11:49:38.467Z,60.20
2018-09-27T11:52:06.785Z,60.20
2018-09-27T11:54:35.324Z,60.30
2018-09-27T11:57:03.857Z,60.30
2018-09-27T11:59:32.236Z,60.30
2018-09-27T12:02:00.692Z,60.30
2018-09-27T12:04:29.193Z,60.30
2018-09-27T12:06:57.687Z,60.30
2018-09-27T12:09:26.180Z,60.30
2018-09-27T12:11:54.926Z,60.30
2018-09-27T12:14:24.070Z,60.30
2018-09-27T12:16:52.688Z,60.30
2018-09-27T12:19:21.108Z,60.30
2018-09-27T12:21:49.895Z,60.30
2018-09-27T12:24:18.496Z,60.20
2018-09-27T12:26:46.995Z,60.20
2018-09-27T12:29:15.917Z,60.30
2018-09-27T12:31:44.333Z,60.30
2018-09-27T12:34:13.007Z,60.20
2018-09-27T12:36:41.570Z,60.30
2018-09-27T12:39:11.529Z,60.20
2018-09-27T12:41:40.309Z,60.20
2018-09-27T12:44:09.000Z,60.20
2018-09-27T12:46:37.481Z,60.20
2018-09-27T12:49:05.993Z,60.20
2018-09-27T12:51:34.484Z,60.20
2018-09-27T12:54:02.908Z,60.20
2018-09-27T12:56:31.380Z,60.20
2018-09-27T12:59:00.043Z,60.20
2018-09-27T13:01:28.547Z,60.20
2018-09-27T13:03:57.185Z,60.20
2018-09-27T13:06:25.689Z,60.20
2018-09-27T13:08:54.203Z,60.20
2018-09-27T13:11:22.671Z,60.20
2018-09-27T13:13:51.204Z,60.20
2018-09-27T13:16:19.684Z,60.20
2018-09-27T13:18:48.128Z,60.20
2018-09-27T13:21:16.633Z,60.20
2018-09-27T13:23:45.108Z,60.10
2018-09-27T13:26:13.596Z,60.20
2018-09-27T13:28:42.098Z,60.20
2018-09-27T13:31:10.639Z,60.20
2018-09-27T13:33:38.955Z,60.20
2018-09-27T13:36:07.727Z,60.00
2018-09-27T13:38:36.154Z,60.00
2018-09-27T13:41:04.624Z,60.00
2018-09-27T13:43:33.160Z,60.00
2018-09-27T13:46:01.657Z,60.00
2018-09-27T13:48:30.068Z,60.00
2018-09-27T13:50:58.609Z,60.00
2018-09-27T13:53:27.048Z,60.00
2018-09-27T13:55:55.482Z,60.00
2018-09-27T13:58:24.050Z,60.00
2018-09-27T14:00:52.503Z,60.00
2018-09-27T14:03:20.945Z,60.00
2018-09-27T14:05:49.411Z,60.00
2018-09-27T14:08:17.918Z,60.00
2018-09-27T14:10:47.342Z,60.00
2018-09-27T14:13:15.999Z,59.90
2018-09-27T14:15:44.604Z,59.90
2018-09-27T14:18:13.050Z,59.90
2018-09-27T14:20:41.528Z,59.90
2018-09-27T14:23:10.260Z,59.90
2018-09-27T14:25:38.710Z,59.90
2018-09-27T14:28:07.172Z,59.90
2018-09-27T14:30:35.657Z,59.90
2018-09-27T14:33:04.156Z,59.90
2018-09-27T14:35:32.623Z,59.90
2018-09-27T14:38:01.114Z,59.90
2018-09-27T14:40:29.636Z,59.90
2018-09-27T14:42:58.062Z,59.90
2018-09-27T14:45:26.536Z,59.90
2018-09-27T14:47:55.092Z,59.90
2018-09-27T14:50:23.492Z,59.90
2018-09-27T14:52:51.998Z,59.90
2018-09-27T14:55:20.538Z,59.90
2018-09-27T14:57:48.946Z,59.90
2018-09-27T15:00:17.478Z,59.90
2018-09-27T15:02:45.894Z,59.90
2018-09-27T15:05:14.670Z,59.90
2018-09-27T15:07:43.485Z,59.90
2018-09-27T15:10:11.941Z,59.90
2018-09-27T15:12:41.792Z,59.90
2018-09-27T15:15:10.138Z,59.80
2018-09-27T15:17:38.992Z,59.80
2018-09-27T15:20:07.749Z,59.80
2018-09-27T15:22:36.512Z,59.80
2018-09-27T15:25:05.288Z,59.80
2018-09-27T15:27:33.780Z,59.80
2018-09-27T15:30:02.288Z,59.80
2018-09-27T15:32:32.379Z,59.80
2018-09-27T15:35:01.044Z,59.80
2018-09-27T15:37:29.540Z,59.80
2018-09-27T15:39:58.252Z,59.80
2018-09-27T15:42:26.940Z,59.80
2018-09-27T15:44:55.395Z,59.80
2018-09-27T15:47:23.851Z,59.80
2018-09-27T15:49:52.550Z,59.80
2018-09-27T15:52:21.019Z,59.80
2018-09-27T15:54:49.503Z,59.80
2018-09-27T15:57:18.051Z,59.70
2018-09-27T15:59:46.475Z,59.70
2018-09-27T16:02:14.952Z,59.70
2018-09-27T16:04:43.466Z,59.70
2018-09-27T16:07:12.065Z,59.70
2018-09-27T16:09:40.580Z,59.70
2018-09-27T16:12:09.096Z,59.70
2018-09-27T16:14:37.876Z,59.70
2018-09-27T16:17:06.232Z,59.70
2018-09-27T16:19:34.786Z,59.70
2018-09-27T16:22:03.283Z,59.70
2018-09-27T16:24:31.671Z,59.70
2018-09-27T16:27:00.196Z,59.60
2018-09-27T16:29:28.698Z,59.60
2018-09-27T16:31:57.116Z,59.60
2018-09-27T16:34:25.643Z,59.60
2018-09-27T16:36:54.083Z,59.60
2018-09-27T16:39:26.473Z,59.60
2018-09-27T16:41:54.994Z,59.60
2018-09-27T16:44:23.401Z,59.60
2018-09-27T16:46:52.092Z,59.60
2018-09-27T16:49:20.625Z,59.60
2018-09-27T16:51:49.112Z,59.60
2018-09-27T16:54:17.567Z,59.60
2018-09-27T16:56:46.032Z,59.60
2018-09-27T16:59:14.692Z,59.60
2018-09-27T17:01:43.191Z,59.60
2018-09-27T17:04:11.656Z,59.60
2018-09-27T17:06:40.134Z,59.60
2018-09-27T17:09:09.328Z,59.60
2018-09-27T17:11:37.976Z,59.60
2018-09-27T17:14:06.598Z,59.70
2018-09-27T17:16:36.353Z,59.60
2018-09-27T17:19:04.804Z,59.60
2018-09-27T17:21:38.633Z,59.70
2018-09-27T17:24:07.388Z,59.60
2018-09-27T17:26:35.753Z,59.50
2018-09-27T17:29:04.235Z,59.20
2018-09-27T17:31:32.731Z,59.20
2018-09-27T17:34:01.215Z,59.40
2018-09-27T17:36:29.706Z,59.50
2018-09-27T17:38:58.166Z,59.50
2018-09-27T17:41:26.629Z,59.50
2018-09-27T17:43:55.316Z,59.50
2018-09-27T17:46:23.810Z,59.50
2018-09-27T17:48:52.299Z,59.50
2018-09-27T17:51:20.959Z,59.60
2018-09-27T17:53:49.475Z,59.60
2018-09-27T17:56:17.961Z,59.60
2018-09-27T17:58:46.745Z,59.60
2018-09-27T18:01:15.090Z,59.60
2018-09-27T18:03:43.585Z,59.60
2018-09-27T18:06:12.059Z,59.60
2018-09-27T18:08:40.528Z,59.60
2018-09-27T18:11:09.028Z,59.60
2018-09-27T18:13:37.525Z,59.60
2018-09-27T18:16:06.247Z,59.60
2018-09-27T18:18:34.906Z,59.70
2018-09-27T18:21:03.361Z,59.70
2018-09-27T18:23:31.828Z,59.70
2018-09-27T18:26:00.342Z,59.70
2018-09-27T18:28:28.789Z,59.70
2018-09-27T18:30:57.277Z,59.70
2018-09-27T18:33:25.753Z,59.70
2018-09-27T18:35:54.243Z,59.70
2018-09-27T18:38:22.704Z,59.80
2018-09-27T18:40:51.395Z,59.80
2018-09-27T18:43:19.920Z,59.80
2018-09-27T18:45:48.352Z,59.80
2018-09-27T18:48:16.874Z,59.80
2018-09-27T18:50:45.386Z,59.80
2018-09-27T18:53:13.784Z,59.80
2018-09-27T18:55:42.317Z,59.80
2018-09-27T18:58:10.748Z,59.80
2018-09-27T19:00:39.375Z,59.90
2018-09-27T19:03:07.928Z,59.90
2018-09-27T19:05:36.454Z,59.90
2018-09-27T19:08:08.636Z,59.90
2018-09-27T19:10:37.431Z,59.90
2018-09-27T19:13:06.164Z,59.90
2018-09-27T19:15:34.662Z,59.90
2018-09-27T19:18:03.103Z,59.90
2018-09-27T19:20:31.644Z,60.00
2018-09-27T19:23:00.359Z,60.00
2018-09-27T19:25:29.764Z,60.00
2018-09-27T19:27:58.260Z,60.00
2018-09-27T19:30:26.732Z,60.00
2018-09-27T19:32:55.236Z,60.00
2018-09-27T19:35:23.750Z,60.10
2018-09-27T19:37:52.353Z,60.10
2018-09-27T19:40:20.864Z,60.10
2018-09-27T19:42:49.362Z,60.10
2018-09-27T19:45:17.856Z,60.10
2018-09-27T19:47:46.369Z,60.10
2018-09-27T19:50:14.768Z,60.10
2018-09-27T19:52:43.302Z,60.10
2018-09-27T19:55:11.801Z,60.10
2018-09-27T19:57:40.296Z,60.20
2018-09-27T20:00:08.681Z,60.20
2018-09-27T20:02:37.227Z,60.20
2018-09-27T20:05:05.654Z,60.20
2018-09-27T20:07:34.141Z,60.20
2018-09-27T20:10:02.670Z,60.20
2018-09-27T20:12:31.099Z,60.30
2018-09-27T20:14:59.562Z,60.20
2018-09-27T20:17:28.051Z,60.30
2018-09-27T20:19:56.596Z,60.30
2018-09-27T20:22:25.087Z,60.30
2018-09-27T20:24:53.483Z,60.30
2018-09-27T20:27:21.970Z,60.30
2018-09-27T20:29:50.465Z,60.30
2018-09-27T20:32:18.926Z,60.30
2018-09-27T20:34:47.488Z,60.30
2018-09-27T20:37:15.890Z,60.30
2018-09-27T20:39:44.384Z,60.30
2018-09-27T20:42:12.902Z,60.30
2018-09-27T20:44:41.328Z,60.30
2018-09-27T20:47:09.893Z,60.30
2018-09-27T20:49:38.368Z,60.40
2018-09-27T20:52:06.771Z,60.40
2018-09-27T20:54:35.471Z,60.30
2018-09-27T20:57:04.024Z,60.30
2018-09-27T20:59:32.650Z,60.30
2018-09-27T21:02:01.104Z,60.40
2018-09-27T21:04:29.661Z,60.40
2018-09-27T21:06:58.252Z,60.40
2018-09-27T21:09:26.764Z,60.40
2018-09-27T21:11:55.276Z,60.40
2018-09-27T21:14:23.785Z,60.40
2018-09-27T21:16:52.224Z,60.40
2018-09-27T21:19:20.699Z,60.40
2018-09-27T21:21:49.191Z,60.40
2018-09-27T21:24:17.710Z,60.40
2018-09-27T21:26:46.106Z,60.40
2018-09-27T21:29:14.591Z,60.40
2018-09-27T21:31:43.133Z,60.40
2018-09-27T21:34:11.561Z,60.40
2018-09-27T21:36:40.228Z,60.40
2018-09-27T21:39:09.119Z,60.40
2018-09-27T21:41:37.652Z,60.40
2018-09-27T21:44:06.133Z,60.40
2018-09-27T21:46:34.850Z,60.40
2018-09-27T21:49:03.295Z,60.50
2018-09-27T21:51:31.747Z,60.50
2018-09-27T21:54:00.219Z,60.50
2018-09-27T21:56:28.684Z,60.50
2018-09-27T21:58:57.189Z,60.50
2018-09-27T22:01:25.784Z,60.50
2018-09-27T22:03:54.440Z,60.50
2018-09-27T22:06:22.841Z,60.50
2018-09-27T22:08:51.308Z,60.50
2018-09-27T22:11:19.782Z,60.50
2018-09-27T22:13:48.252Z,60.50
2018-09-27T22:16:16.797Z,60.50
2018-09-27T22:18:45.407Z,60.50
2018-09-27T22:21:13.964Z,60.50
2018-09-27T22:23:42.452Z,60.50
2018-09-27T22:26:11.060Z,60.60
2018-09-27T22:28:39.748Z,60.60
2018-09-27T22:31:08.240Z,60.60
2018-09-27T22:33:36.701Z,60.60
2018-09-27T22:36:05.392Z,60.60
2018-09-27T22:38:33.884Z,60.60
2018-09-27T22:41:02.358Z,60.60
2018-09-27T22:43:30.832Z,60.60
2018-09-27T22:45:59.369Z,60.60
2018-09-27T22:48:27.800Z,60.60
2018-09-27T22:50:56.332Z,60.60
2018-09-27T22:53:24.756Z,60.60
2018-09-27T22:55:53.244Z,60.60
2018-09-27T22:58:21.845Z,60.60
2018-09-27T23:00:50.590Z,60.60
2018-09-27T23:03:19.089Z,60.70
2018-09-27T23:05:47.579Z,60.70
2018-09-27T23:08:16.042Z,60.70
2018-09-27T23:10:44.581Z,60.70
2018-09-27T23:13:13.005Z,60.70
2018-09-27T23:15:41.500Z,60.70
2018-09-27T23:18:10.070Z,60.70
2018-09-27T23:20:38.494Z,60.70
2018-09-27T23:23:06.968Z,60.70
2018-09-27T23:25:35.420Z,60.70
2018-09-27T23:28:03.876Z,60.70
2018-09-27T23:30:32.393Z,60.70
2018-09-27T23:33:02.936Z,60.70
2018-09-27T23:35:31.416Z,60.70
2018-09-27T23:37:59.896Z,60.70
2018-09-27T23:40:28.343Z,60.70
2018-09-27T23:42:56.818Z,60.70
2018-09-27T23:45:25.294Z,60.70
2018-09-27T23:47:53.864Z,60.70
2018-09-27T23:50:22.285Z,60.70
2018-09-27T23:52:50.936Z,60.80
2018-09-27T23:55:19.417Z,60.80
2018-09-27T23:57:47.950Z,60.80
